Time;durP1;ratioP1;P1;durP2;ratioP2;P2;SDS_P1;SDS_P2;PMS_P1;PMS_P2;Temp;Humidity;BMP_temperature;BMP_pressure;BME280_temperature;BME280_humidity;BME280_pressure;Samples;Min_cycle;Max_cycle;Signal;HPM_P1;HPM_P2
2021/10/17 00:04:37;;;;;;;3.17;1.50;;;;;;;;;;10250917;28;20049;-61
2021/10/17 00:09:35;;;;;;;2.77;2.00;;;;;;;;;;10238694;28;20034;-60
2021/10/17 00:14:33;;;;;;;4.20;1.02;;;;;;;;;;10247375;28;20030;-61
2021/10/17 00:19:30;;;;;;;6.47;2.63;;;;;;;;;;10240086;28;20092;-60
2021/10/17 00:24:28;;;;;;;4.50;1.63;;;;;;;;;;10242738;28;20277;-59
2021/10/17 00:29:29;;;;;;;5.13;2.37;;;;;;;;;;10241231;28;20038;-59
2021/10/17 00:34:27;;;;;;;4.68;2.20;;;;;;;;;;10240371;28;20045;-59
2021/10/17 00:39:24;;;;;;;3.33;2.10;;;;;;;;;;10231685;28;20030;-59
2021/10/17 00:44:23;;;;;;;4.73;1.97;;;;;;;;;;10252175;28;20064;-60
2021/10/17 00:49:20;;;;;;;;;;;;;;;;;;10242671;28;20120;-60
2021/10/17 00:54:17;;;;;;;4.68;1.35;;;;;;;;;;10247391;28;20023;-59
2021/10/17 00:59:15;;;;;;;4.63;1.97;;;;;;;;;;10239155;28;20444;-60
2021/10/17 01:04:12;;;;;;;4.57;2.37;;;;;;;;;;10254356;28;20451;-61
2021/10/17 01:09:09;;;;;;;7.73;2.63;;;;;;;;;;10240791;28;20050;-59
2021/10/17 01:14:07;;;;;;;7.27;1.63;;;;;;;;;;10243704;28;20400;-61
2021/10/17 01:19:04;;;;;;;5.43;1.37;;;;;;;;;;10259138;28;20038;-60
2021/10/17 01:24:03;;;;;;;5.67;2.23;;;;;;;;;;10241512;28;20689;-61
2021/10/17 01:29:01;;;;;;;;;;;;;;;;;;10249717;28;20519;-61
2021/10/17 01:33:58;;;;;;;5.20;1.65;;;;;;;;;;10260511;28;20376;-61
2021/10/17 01:38:56;;;;;;;8.17;2.73;;;;;;;;;;10261014;28;20495;-61
2021/10/17 01:44:00;;;;;;;6.22;2.13;;;;;;;;;;10233956;28;20060;-59
2021/10/17 01:48:57;;;;;;;6.57;1.98;;;;;;;;;;10278447;28;20406;-60
2021/10/17 01:53:55;;;;;;;5.47;2.03;;;;;;;;;;10244115;28;20040;-58
2021/10/17 01:58:52;;;;;;;2.73;1.43;;;;;;;;;;10256590;28;20038;-61
2021/10/17 02:03:50;;;;;;;8.57;3.07;;;;;;;;;;10252945;28;20046;-61
2021/10/17 02:08:47;;;;;;;2.90;1.57;;;;;;;;;;10252520;28;20038;-60
2021/10/17 02:13:45;;;;;;;2.97;1.20;;;;;;;;;;10272656;28;20039;-59
2021/10/17 02:18:42;;;;;;;3.90;2.13;;;;;;;;;;10272195;28;20033;-59
2021/10/17 02:23:40;;;;;;;3.28;1.45;;;;;;;;;;10261212;28;20093;-59
2021/10/17 02:28:37;;;;;;;3.20;1.50;;;;;;;;;;10257822;28;20148;-61
2021/10/17 02:33:35;;;;;;;8.03;2.93;;;;;;;;;;10258471;28;20022;-60
2021/10/17 02:38:34;;;;;;;14.27;5.00;;;;;;;;;;10268953;28;20373;-61
2021/10/17 02:43:31;;;;;;;11.93;2.53;;;;;;;;;;10252700;28;20125;-62
2021/10/17 02:48:29;;;;;;;11.73;3.50;;;;;;;;;;10249471;28;20112;-61
2021/10/17 02:53:30;;;;;;;7.95;4.60;;;;;;;;;;10261458;28;20100;-61
2021/10/17 02:58:28;;;;;;;4.90;2.33;;;;;;;;;;10266184;28;20056;-61
2021/10/17 03:03:31;;;;;;;8.10;3.58;;;;;;;;;;10266608;28;20036;-61
2021/10/17 03:08:29;;;;;;;9.95;3.60;;;;;;;;;;10255442;28;20518;-61
2021/10/17 03:13:30;;;;;;;9.63;4.22;;;;;;;;;;10258473;28;20620;-61
2021/10/17 03:18:28;;;;;;;6.70;2.53;;;;;;;;;;10258617;28;20457;-62
2021/10/17 03:23:26;;;;;;;11.05;4.97;;;;;;;;;;10264727;28;20026;-62
2021/10/17 03:28:23;;;;;;;5.43;1.93;;;;;;;;;;10261139;28;20034;-62
2021/10/17 03:33:22;;;;;;;;;;;;;;;;;;10264685;28;20053;-61
2021/10/17 03:38:26;;;;;;;3.70;2.30;;;;;;;;;;10280537;28;19914;-61
2021/10/17 03:43:23;;;;;;;7.53;2.70;;;;;;;;;;10265987;28;20475;-61
2021/10/17 03:48:25;;;;;;;12.52;4.20;;;;;;;;;;10265184;28;20423;-62
2021/10/17 03:53:27;;;;;;;11.73;5.43;;;;;;;;;;10264307;28;20026;-59
2021/10/17 03:58:25;;;;;;;6.50;2.27;;;;;;;;;;10263948;28;20036;-60
2021/10/17 04:03:22;;;;;;;3.87;2.27;;;;;;;;;;10276103;28;20073;-60
2021/10/17 04:08:25;;;;;;;10.98;3.95;;;;;;;;;;10258180;28;20041;-60
2021/10/17 04:13:24;;;;;;;7.38;3.63;;;;;;;;;;10260647;28;20099;-59
2021/10/17 04:18:21;;;;;;;13.87;5.13;;;;;;;;;;10263809;28;20034;-60
2021/10/17 04:23:19;;;;;;;14.87;4.97;;;;;;;;;;10262774;28;20034;-59
2021/10/17 04:28:16;;;;;;;13.63;6.33;;;;;;;;;;10262365;28;20033;-60
2021/10/17 04:33:14;;;;;;;4.00;2.00;;;;;;;;;;10220837;28;20025;-62
2021/10/17 04:38:12;;;;;;;3.90;1.80;;;;;;;;;;10231177;28;20404;-62
2021/10/17 04:43:12;;;;;;;2.38;1.73;;;;;;;;;;10229136;28;20129;-62
2021/10/17 04:48:09;;;;;;;2.28;1.33;;;;;;;;;;10242674;28;20690;-62
2021/10/17 04:53:07;;;;;;;7.90;2.93;;;;;;;;;;10239789;28;20033;-62
2021/10/17 04:58:05;;;;;;;11.03;3.13;;;;;;;;;;10248147;28;20034;-62
2021/10/17 05:03:03;;;;;;;;;;;;;;;;;;10225711;28;20575;-63
2021/10/17 05:08:01;;;;;;;8.75;3.38;;;;;;;;;;10228190;28;20068;-62
2021/10/17 05:13:03;;;;;;;6.18;3.33;;;;;;;;;;10236619;28;20026;-63
2021/10/17 05:18:00;;;;;;;4.97;2.40;;;;;;;;;;10242524;28;20049;-63
2021/10/17 05:22:59;;;;;;;6.63;3.20;;;;;;;;;;10241575;28;20045;-61
2021/10/17 05:27:58;;;;;;;4.07;2.55;;;;;;;;;;10239828;28;20375;-62
2021/10/17 05:32:56;;;;;;;5.03;2.28;;;;;;;;;;10229500;28;20041;-61
2021/10/17 05:37:54;;;;;;;3.42;2.10;;;;;;;;;;10232616;28;20046;-61
2021/10/17 05:42:52;;;;;;;4.30;1.97;;;;;;;;;;10240239;28;20034;-61
2021/10/17 05:47:49;;;;;;;6.67;2.83;;;;;;;;;;10235726;28;20038;-61
2021/10/17 05:52:47;;;;;;;3.93;2.33;;;;;;;;;;10255284;28;20030;-61
2021/10/17 05:57:44;;;;;;;7.67;2.43;;;;;;;;;;10244022;28;20030;-60
2021/10/17 06:02:43;;;;;;;7.00;2.50;;;;;;;;;;10257791;28;20078;-61
2021/10/17 06:07:44;;;;;;;4.53;2.50;;;;;;;;;;10250281;28;20508;-61
2021/10/17 06:12:42;;;;;;;6.33;2.50;;;;;;;;;;10259969;28;20030;-60
2021/10/17 06:17:42;;;;;;;8.75;3.22;;;;;;;;;;10264401;28;20103;-60
2021/10/17 06:22:40;;;;;;;5.00;2.93;;;;;;;;;;10231870;28;20121;-61
2021/10/17 06:27:37;;;;;;;10.93;3.40;;;;;;;;;;10238615;28;20033;-62
2021/10/17 06:32:35;;;;;;;5.10;3.03;;;;;;;;;;10242201;28;20041;-61
2021/10/17 06:37:32;;;;;;;7.07;2.07;;;;;;;;;;10231365;28;20125;-61
2021/10/17 06:42:30;;;;;;;9.87;2.80;;;;;;;;;;10254625;28;20564;-61
2021/10/17 06:47:50;;;;;;;6.85;3.33;;;;;;;;;;10245966;28;20088;-61
2021/10/17 06:52:48;;;;;;;2.37;2.00;;;;;;;;;;10253476;28;20080;-60
2021/10/17 06:57:45;;;;;;;4.55;2.25;;;;;;;;;;10248311;28;20148;-61
2021/10/17 07:02:44;;;;;;;3.03;1.95;;;;;;;;;;10254255;28;20495;-61
2021/10/17 07:07:44;;;;;;;7.28;2.63;;;;;;;;;;10237117;28;20503;-63
2021/10/17 07:12:42;;;;;;;4.47;1.52;;;;;;;;;;10252235;28;20083;-63
2021/10/17 07:17:40;;;;;;;5.77;2.43;;;;;;;;;;10232996;28;20180;-63
2021/10/17 07:22:37;;;;;;;5.63;1.87;;;;;;;;;;10251368;28;20038;-62
2021/10/17 07:27:35;;;;;;;6.28;2.95;;;;;;;;;;10232965;28;20794;-62
2021/10/17 07:32:34;;;;;;;6.17;2.17;;;;;;;;;;10241476;28;20056;-63
2021/10/17 07:37:33;;;;;;;7.13;2.28;;;;;;;;;;10246015;28;20461;-62
2021/10/17 07:42:31;;;;;;;14.18;3.97;;;;;;;;;;10242414;28;20096;-62
2021/10/17 07:47:31;;;;;;;6.20;3.10;;;;;;;;;;10270296;28;20526;-63
2021/10/17 07:52:36;;;;;;;6.80;3.60;;;;;;;;;;10239566;28;20427;-62
2021/10/17 07:57:44;;;;;;;9.43;2.65;;;;;;;;;;10233422;28;20269;-62
2021/10/17 08:02:44;;;;;;;5.28;3.10;;;;;;;;;;10240758;28;20682;-63
2021/10/17 08:07:41;;;;;;;9.63;2.70;;;;;;;;;;10253157;28;20115;-63
2021/10/17 08:12:39;;;;;;;5.40;2.67;;;;;;;;;;10247789;28;20026;-62
2021/10/17 08:17:37;;;;;;;6.15;2.78;;;;;;;;;;10238044;28;20332;-63
2021/10/17 08:22:43;;;;;;;6.38;3.10;;;;;;;;;;10253158;28;20064;-61
2021/10/17 08:27:43;;;;;;;6.25;2.15;;;;;;;;;;10254513;28;20038;-62
2021/10/17 08:32:46;;;;;;;5.32;2.92;;;;;;;;;;10243794;28;20030;-63
2021/10/17 08:37:45;;;;;;;5.15;2.72;;;;;;;;;;10245931;28;20037;-62
2021/10/17 08:42:47;;;;;;;6.05;2.88;;;;;;;;;;10250407;28;20038;-60
2021/10/17 08:47:55;;;;;;;6.88;2.80;;;;;;;;;;10239141;28;20053;-61
2021/10/17 08:52:53;;;;;;;11.07;3.22;;;;;;;;;;10253890;28;20042;-60
2021/10/17 08:57:55;;;;;;;7.97;2.97;;;;;;;;;;10228854;28;20044;-62
2021/10/17 09:02:54;;;;;;;11.65;2.70;;;;;;;;;;10243810;28;20042;-62
2021/10/17 09:07:52;;;;;;;15.50;4.83;;;;;;;;;;10239247;28;20148;-62
2021/10/17 09:13:14;;;;;;;14.02;6.43;;;;;;;;;;10236151;28;20184;-63
2021/10/17 09:18:13;;;;;;;18.75;9.25;;;;;;;;;;10234960;28;20403;-63
2021/10/17 09:23:10;;;;;;;7.72;4.57;;;;;;;;;;10236188;28;20562;-60
2021/10/17 09:28:18;;;;;;;7.73;3.37;;;;;;;;;;10235381;28;20119;-60
2021/10/17 09:33:18;;;;;;;7.32;3.05;;;;;;;;;;10241135;28;20870;-63
2021/10/17 09:38:16;;;;;;;6.13;3.03;;;;;;;;;;10243178;28;21183;-62
2021/10/17 09:43:29;;;;;;;5.13;2.45;;;;;;;;;;10254263;28;20072;-62
2021/10/17 09:48:44;;;;;;;9.77;3.70;;;;;;;;;;10239499;28;20038;-61
2021/10/17 09:53:47;;;;;;;7.32;2.58;;;;;;;;;;10249335;28;20022;-61
2021/10/17 09:58:44;;;;;;;6.55;2.58;;;;;;;;;;10237445;28;20149;-62
2021/10/17 10:03:42;;;;;;;25.97;2.37;;;;;;;;;;10230826;28;20117;-61
2021/10/17 10:08:40;;;;;;;5.03;2.57;;;;;;;;;;10244866;28;20569;-61
2021/10/17 10:13:38;;;;;;;4.60;2.57;;;;;;;;;;10250710;28;20018;-60
2021/10/17 10:18:36;;;;;;;8.07;3.33;;;;;;;;;;10239874;28;20030;-62
2021/10/17 10:23:34;;;;;;;3.47;2.45;;;;;;;;;;10256314;28;20056;-61
2021/10/17 10:28:32;;;;;;;7.70;2.38;;;;;;;;;;10235725;28;20032;-61
2021/10/17 10:33:39;;;;;;;3.47;2.30;;;;;;;;;;10247182;28;20014;-61
2021/10/17 10:38:52;;;;;;;10.18;3.00;;;;;;;;;;10242417;28;20041;-61
2021/10/17 10:43:50;;;;;;;4.40;1.98;;;;;;;;;;10249775;28;20046;-61
2021/10/17 10:48:48;;;;;;;6.88;2.75;;;;;;;;;;10241219;28;20018;-61
2021/10/17 10:53:48;;;;;;;8.17;2.83;;;;;;;;;;10243882;28;20065;-61
2021/10/17 10:58:55;;;;;;;4.57;2.20;;;;;;;;;;10238919;28;20053;-61
2021/10/17 11:03:52;;;;;;;4.32;2.45;;;;;;;;;;10244057;28;20095;-60
2021/10/17 11:09:09;;;;;;;5.30;2.50;;;;;;;;;;10239649;28;20042;-61
2021/10/17 11:14:13;;;;;;;9.32;2.78;;;;;;;;;;10233697;28;20183;-61
2021/10/17 11:19:12;;;;;;;5.25;2.53;;;;;;;;;;10237565;28;20092;-61
2021/10/17 11:24:17;;;;;;;5.07;1.95;;;;;;;;;;10253739;28;20042;-60
2021/10/17 11:29:14;;;;;;;8.75;2.72;;;;;;;;;;10238922;28;20045;-60
2021/10/17 11:34:13;;;;;;;45.73;13.10;;;;;;;;;;10241693;28;20037;-61
2021/10/17 11:39:11;;;;;;;25.08;11.48;;;;;;;;;;10247262;28;20041;-62
2021/10/17 11:44:08;;;;;;;21.23;9.77;;;;;;;;;;10251495;28;20493;-61
2021/10/17 11:49:11;;;;;;;11.87;4.70;;;;;;;;;;10247769;28;20487;-61
2021/10/17 11:54:09;;;;;;;9.27;5.35;;;;;;;;;;10251045;28;20084;-62
2021/10/17 11:59:12;;;;;;;12.30;4.73;;;;;;;;;;10251722;28;20091;-61
2021/10/17 12:04:09;;;;;;;7.75;4.00;;;;;;;;;;10252097;28;20512;-63
2021/10/17 12:09:06;;;;;;;12.90;4.93;;;;;;;;;;10236827;28;20455;-61
2021/10/17 12:14:06;;;;;;;7.90;3.00;;;;;;;;;;10244369;28;20532;-62
2021/10/17 12:19:06;;;;;;;8.70;3.47;;;;;;;;;;10227542;28;21182;-62
2021/10/17 12:24:04;;;;;;;14.50;3.07;;;;;;;;;;10253568;28;20129;-62
2021/10/17 12:29:17;;;;;;;11.15;3.42;;;;;;;;;;10243130;28;20076;-62
2021/10/17 12:34:15;;;;;;;8.90;2.25;;;;;;;;;;10242315;28;20252;-62
2021/10/17 12:39:13;;;;;;;4.03;2.50;;;;;;;;;;10236010;28;20695;-60
2021/10/17 12:44:11;;;;;;;7.93;2.67;;;;;;;;;;10256930;28;20033;-61
2021/10/17 12:49:09;;;;;;;;;;;;;;;;;;10237502;28;20446;-62
2021/10/17 12:54:15;;;;;;;9.85;3.35;;;;;;;;;;10239145;28;19972;-59
2021/10/17 12:59:14;;;;;;;4.10;2.88;;;;;;;;;;10241047;28;20117;-60
2021/10/17 13:04:11;;;;;;;;;;;;;;;;;;10242065;28;20140;-61
2021/10/17 13:09:08;;;;;;;5.97;2.75;;;;;;;;;;10238887;28;20029;-61
2021/10/17 13:14:09;;;;;;;5.97;2.70;;;;;;;;;;10245409;28;20599;-61
2021/10/17 13:19:08;;;;;;;4.70;2.55;;;;;;;;;;10234269;28;20042;-59
2021/10/17 13:24:05;;;;;;;9.13;2.67;;;;;;;;;;10251779;28;20112;-61
2021/10/17 13:29:03;;;;;;;7.73;3.00;;;;;;;;;;10253563;28;20034;-60
2021/10/17 13:34:01;;;;;;;4.20;1.75;;;;;;;;;;10241154;28;20034;-60
2021/10/17 13:38:59;;;;;;;4.60;3.53;;;;;;;;;;10238225;28;20036;-60
2021/10/17 13:43:58;;;;;;;10.00;3.53;;;;;;;;;;10243437;28;20129;-59
2021/10/17 13:48:55;;;;;;;8.40;3.05;;;;;;;;;;10238038;28;20038;-61
2021/10/17 13:53:53;;;;;;;6.47;2.93;;;;;;;;;;10240293;28;20034;-61
2021/10/17 13:58:51;;;;;;;7.03;3.38;;;;;;;;;;10247859;28;20053;-62
2021/10/17 14:03:48;;;;;;;6.37;3.33;;;;;;;;;;10249665;28;20045;-63
2021/10/17 14:08:45;;;;;;;8.90;2.30;;;;;;;;;;10231490;28;20111;-61
2021/10/17 14:13:43;;;;;;;8.23;3.10;;;;;;;;;;10235154;28;20475;-61
2021/10/17 14:18:42;;;;;;;4.00;3.07;;;;;;;;;;10235212;28;20034;-61
2021/10/17 14:23:40;;;;;;;5.45;3.15;;;;;;;;;;10235414;28;20026;-61
2021/10/17 14:28:37;;;;;;;9.93;4.50;;;;;;;;;;10247067;28;20038;-59
2021/10/17 14:33:35;;;;;;;11.87;4.80;;;;;;;;;;10239441;28;20476;-61
2021/10/17 14:38:34;;;;;;;7.97;4.50;;;;;;;;;;10232238;28;20021;-59
2021/10/17 14:43:31;;;;;;;15.05;5.22;;;;;;;;;;10248602;28;20045;-60
2021/10/17 14:48:30;;;;;;;10.63;5.03;;;;;;;;;;10246506;28;20518;-60
2021/10/17 14:53:27;;;;;;;;;;;;;;;;;;10242059;28;20522;-61
2021/10/17 14:58:27;;;;;;;8.43;4.50;;;;;;;;;;10239394;28;20136;-61
2021/10/17 15:03:24;;;;;;;14.45;5.32;;;;;;;;;;10238026;28;20041;-61
2021/10/17 15:08:22;;;;;;;8.73;4.30;;;;;;;;;;10253587;28;20038;-62
2021/10/17 15:13:19;;;;;;;7.47;4.47;;;;;;;;;;10252313;28;20372;-59
2021/10/17 15:18:18;;;;;;;9.83;5.23;;;;;;;;;;10249551;28;20038;-59
2021/10/17 15:23:17;;;;;;;9.75;4.03;;;;;;;;;;10247334;28;20084;-59
2021/10/17 15:28:15;;;;;;;10.80;4.15;;;;;;;;;;10267724;28;21081;-59
2021/10/17 15:33:13;;;;;;;7.93;3.17;;;;;;;;;;10244150;28;20065;-61
2021/10/17 15:38:11;;;;;;;10.23;3.40;;;;;;;;;;10246953;28;20041;-59
2021/10/17 15:43:09;;;;;;;6.07;3.67;;;;;;;;;;10240196;28;20044;-60
2021/10/17 15:48:07;;;;;;;6.05;2.70;;;;;;;;;;10226649;28;20045;-59
2021/10/17 15:53:05;;;;;;;5.53;3.10;;;;;;;;;;10229238;28;20038;-59
2021/10/17 15:58:02;;;;;;;8.87;3.33;;;;;;;;;;10228897;28;20125;-59
2021/10/17 16:02:59;;;;;;;6.27;2.80;;;;;;;;;;10223249;28;20038;-59
2021/10/17 16:07:57;;;;;;;3.90;2.87;;;;;;;;;;10221967;28;20084;-60
2021/10/17 16:12:54;;;;;;;4.43;2.73;;;;;;;;;;10235632;28;20057;-59
2021/10/17 16:17:53;;;;;;;4.27;2.33;;;;;;;;;;10224869;28;20033;-59
2021/10/17 16:22:50;;;;;;;;;;;;;;;;;;10229868;28;20037;-59
2021/10/17 16:27:48;;;;;;;5.82;2.90;;;;;;;;;;10233730;28;19917;-60
2021/10/17 16:32:49;;;;;;;6.63;3.53;;;;;;;;;;10229768;28;20499;-59
2021/10/17 16:37:46;;;;;;;6.40;3.25;;;;;;;;;;10231357;28;20108;-62
2021/10/17 16:42:44;;;;;;;3.73;2.57;;;;;;;;;;10228984;28;20031;-62
2021/10/17 16:47:41;;;;;;;4.07;2.47;;;;;;;;;;10237221;28;20189;-61
2021/10/17 16:52:39;;;;;;;4.83;3.30;;;;;;;;;;10237031;28;20026;-62
2021/10/17 16:57:36;;;;;;;12.37;4.17;;;;;;;;;;10252248;28;20038;-61
2021/10/17 17:02:34;;;;;;;7.25;3.75;;;;;;;;;;10246520;28;20045;-65
2021/10/17 17:07:32;;;;;;;4.63;3.43;;;;;;;;;;10251785;28;20073;-63
2021/10/17 17:12:29;;;;;;;8.03;3.53;;;;;;;;;;10242418;28;20034;-65
2021/10/17 17:17:27;;;;;;;6.07;3.27;;;;;;;;;;10237819;28;20073;-61
2021/10/17 17:22:24;;;;;;;9.07;3.60;;;;;;;;;;10240800;28;20030;-62
2021/10/17 17:27:22;;;;;;;6.90;2.85;;;;;;;;;;10227472;28;20128;-61
2021/10/17 17:32:20;;;;;;;6.63;3.37;;;;;;;;;;10228713;28;20035;-61
2021/10/17 17:37:18;;;;;;;13.70;3.28;;;;;;;;;;10233901;28;20045;-61
2021/10/17 17:42:15;;;;;;;5.97;2.70;;;;;;;;;;10244089;28;20139;-60
2021/10/17 17:47:12;;;;;;;7.40;2.90;;;;;;;;;;10240576;28;20089;-60
2021/10/17 17:52:10;;;;;;;6.43;2.90;;;;;;;;;;10227953;28;20038;-58
2021/10/17 17:57:07;;;;;;;9.63;3.13;;;;;;;;;;10233916;28;20041;-61
2021/10/17 18:02:05;;;;;;;9.10;3.30;;;;;;;;;;10255384;28;20045;-61
2021/10/17 18:07:02;;;;;;;9.90;3.87;;;;;;;;;;10252305;28;20038;-61
2021/10/17 18:12:00;;;;;;;11.63;5.03;;;;;;;;;;10242644;28;20443;-60
2021/10/17 18:16:57;;;;;;;13.43;4.63;;;;;;;;;;10251651;28;20062;-60
2021/10/17 18:21:55;;;;;;;13.50;6.43;;;;;;;;;;10247376;28;20053;-61
2021/10/17 18:26:52;;;;;;;20.20;6.47;;;;;;;;;;10236550;28;20041;-61
2021/10/17 18:31:50;;;;;;;12.77;5.53;;;;;;;;;;10231109;28;20064;-60
2021/10/17 18:36:47;;;;;;;7.93;5.17;;;;;;;;;;10240857;28;20044;-61
2021/10/17 18:41:45;;;;;;;7.90;4.47;;;;;;;;;;10226589;28;20052;-61
2021/10/17 18:46:42;;;;;;;7.63;4.33;;;;;;;;;;10233254;28;20324;-59
2021/10/17 18:51:40;;;;;;;7.80;4.03;;;;;;;;;;10251512;28;20057;-58
2021/10/17 18:56:37;;;;;;;5.30;4.20;;;;;;;;;;10248398;28;20353;-60
2021/10/17 19:01:34;;;;;;;7.70;4.37;;;;;;;;;;10241087;28;20041;-60
2021/10/17 19:06:32;;;;;;;8.80;3.90;;;;;;;;;;10241110;28;20041;-60
2021/10/17 19:11:29;;;;;;;8.83;4.23;;;;;;;;;;10236212;28;20680;-59
2021/10/17 19:16:27;;;;;;;8.60;3.90;;;;;;;;;;10253522;28;20646;-60
2021/10/17 19:21:24;;;;;;;8.40;4.30;;;;;;;;;;10248162;28;20065;-59
2021/10/17 19:26:22;;;;;;;5.43;3.13;;;;;;;;;;10245249;28;20491;-61
2021/10/17 19:31:19;;;;;;;8.73;3.90;;;;;;;;;;10236387;28;20112;-61
2021/10/17 19:36:17;;;;;;;4.88;2.97;;;;;;;;;;10252047;28;20030;-61
2021/10/17 19:41:15;;;;;;;8.97;3.27;;;;;;;;;;10226302;28;20041;-61
2021/10/17 19:46:12;;;;;;;6.00;3.63;;;;;;;;;;10237359;28;20084;-60
2021/10/17 19:51:10;;;;;;;8.93;2.53;;;;;;;;;;10238268;28;20096;-61
2021/10/17 19:56:09;;;;;;;7.97;3.27;;;;;;;;;;10240365;28;20034;-61
2021/10/17 20:01:07;;;;;;;7.75;4.07;;;;;;;;;;10240765;28;20355;-61
2021/10/17 20:06:05;;;;;;;8.63;4.33;;;;;;;;;;10229930;28;20045;-61
2021/10/17 20:11:02;;;;;;;9.83;4.47;;;;;;;;;;10239244;28;20288;-61
2021/10/17 20:16:01;;;;;;;5.47;3.33;;;;;;;;;;10245350;28;20065;-61
2021/10/17 20:20:59;;;;;;;11.45;5.38;;;;;;;;;;10238363;28;20099;-59
2021/10/17 20:25:57;;;;;;;16.77;7.55;;;;;;;;;;10247708;28;20514;-60
2021/10/17 20:30:54;;;;;;;9.27;3.97;;;;;;;;;;10245534;28;20061;-61
2021/10/17 20:36:06;;;;;;;15.93;6.07;;;;;;;;;;10241599;28;20069;-61
2021/10/17 20:41:03;;;;;;;7.47;4.18;;;;;;;;;;10243221;28;20041;-61
2021/10/17 20:46:01;;;;;;;9.63;6.13;;;;;;;;;;10241727;28;20049;-60
2021/10/17 20:50:58;;;;;;;12.17;6.60;;;;;;;;;;10240007;28;20079;-60
2021/10/17 20:55:58;;;;;;;11.07;6.05;;;;;;;;;;10242526;28;20058;-61
2021/10/17 21:00:55;;;;;;;6.03;3.30;;;;;;;;;;10252035;28;20049;-61
2021/10/17 21:05:53;;;;;;;13.73;7.60;;;;;;;;;;10242431;28;20133;-61
2021/10/17 21:10:50;;;;;;;13.83;5.03;;;;;;;;;;10245739;28;20044;-61
2021/10/17 21:15:47;;;;;;;4.67;3.43;;;;;;;;;;10245521;28;20042;-60
2021/10/17 21:20:45;;;;;;;9.00;3.50;;;;;;;;;;10242705;28;20399;-61
2021/10/17 21:25:42;;;;;;;5.30;3.03;;;;;;;;;;10244300;28;20053;-61
2021/10/17 21:30:39;;;;;;;7.13;3.77;;;;;;;;;;10249872;28;20030;-60
2021/10/17 21:35:37;;;;;;;5.13;3.63;;;;;;;;;;10244950;28;20662;-61
2021/10/17 21:40:34;;;;;;;9.70;4.40;;;;;;;;;;10251769;28;20038;-60
2021/10/17 21:45:32;;;;;;;7.03;3.03;;;;;;;;;;10253252;28;20030;-61
2021/10/17 21:50:29;;;;;;;4.47;2.70;;;;;;;;;;10250581;28;20034;-61
2021/10/17 21:55:26;;;;;;;8.33;3.67;;;;;;;;;;10253761;28;20042;-59
2021/10/17 22:00:27;;;;;;;4.17;1.83;;;;;;;;;;10252321;28;20049;-61
2021/10/17 22:05:24;;;;;;;3.15;2.47;;;;;;;;;;10253965;28;20080;-60
2021/10/17 22:10:22;;;;;;;6.97;2.53;;;;;;;;;;10252993;28;20041;-61
2021/10/17 22:15:20;;;;;;;6.47;2.42;;;;;;;;;;10245314;28;20030;-59
2021/10/17 22:20:17;;;;;;;5.43;2.53;;;;;;;;;;10247465;28;20088;-60
2021/10/17 22:25:15;;;;;;;3.90;2.13;;;;;;;;;;10246699;28;20042;-60
2021/10/17 22:30:13;;;;;;;2.00;1.10;;;;;;;;;;10252605;28;20060;-60
2021/10/17 22:35:11;;;;;;;6.63;3.40;;;;;;;;;;10249193;28;20515;-59
2021/10/17 22:40:09;;;;;;;;;;;;;;;;;;10263315;28;20210;-59
2021/10/17 22:45:07;;;;;;;7.55;2.55;;;;;;;;;;10236516;28;19976;-60
2021/10/17 22:50:04;;;;;;;2.03;1.47;;;;;;;;;;10254730;28;20389;-59
2021/10/17 22:55:02;;;;;;;3.25;2.40;;;;;;;;;;10246698;28;20042;-59
2021/10/17 23:00:00;;;;;;;4.35;2.92;;;;;;;;;;10258278;28;20116;-58
2021/10/17 23:04:57;;;;;;;4.83;3.40;;;;;;;;;;10252106;28;20618;-57
2021/10/17 23:09:55;;;;;;;7.13;3.47;;;;;;;;;;10252841;28;20042;-58
2021/10/17 23:14:52;;;;;;;9.73;3.47;;;;;;;;;;10256882;28;20065;-59
2021/10/17 23:19:49;;;;;;;3.57;2.50;;;;;;;;;;10250101;28;20048;-61
2021/10/17 23:24:47;;;;;;;4.70;2.80;;;;;;;;;;10252216;28;20040;-61
2021/10/17 23:29:45;;;;;;;2.10;1.83;;;;;;;;;;10247488;28;20042;-61
2021/10/17 23:34:42;;;;;;;3.37;2.10;;;;;;;;;;10247235;28;20278;-60
2021/10/17 23:39:40;;;;;;;3.37;2.03;;;;;;;;;;10249252;28;20045;-61
2021/10/17 23:44:37;;;;;;;2.37;1.60;;;;;;;;;;10248422;28;20038;-61
2021/10/17 23:49:35;;;;;;;6.53;2.10;;;;;;;;;;10248986;28;20034;-60
2021/10/17 23:54:32;;;;;;;3.63;2.33;;;;;;;;;;10246033;28;20021;-60
2021/10/17 23:59:30;;;;;;;7.33;2.67;;;;;;;;;;10250156;28;20026;-60
